Time;durP1;ratioP1;P1;durP2;ratioP2;P2;SDS_P1;SDS_P2;PMS_P1;PMS_P2;Temp;Humidity;BMP_temperature;BMP_pressure;BME280_temperature;BME280_humidity;BME280_pressure;Samples;Min_cycle;Max_cycle;Signal;HPM_P1;HPM_P2
2023/11/23 00:00:15;;;;;;;5.13;4.80;;;;;;;4.86;100.00;101744.41;6106847;23;20237;-68
2023/11/23 00:02:42;;;;;;;5.72;5.22;;;;;;;4.66;100.00;101697.84;6099661;23;20029;-69
2023/11/23 00:05:09;;;;;;;4.93;4.63;;;;;;;5.03;100.00;101757.19;6103103;23;20582;-68
2023/11/23 00:07:37;;;;;;;9.13;5.95;;;;;;;4.76;100.00;101696.84;6072619;23;20488;-69
2023/11/23 00:10:04;;;;;;;5.25;4.95;;;;;;;4.98;100.00;101724.31;6125196;23;20029;-68
2023/11/23 00:12:31;;;;;;;7.82;5.88;;;;;;;5.31;100.00;101782.03;6094519;23;20284;-70
2023/11/23 00:14:59;;;;;;;5.82;5.43;;;;;;;5.33;100.00;101779.38;6127803;23;20028;-68
2023/11/23 00:17:26;;;;;;;4.78;4.38;;;;;;;5.44;100.00;101785.31;6098403;23;20114;-68
2023/11/23 00:19:52;;;;;;;5.70;5.15;;;;;;;5.35;100.00;101768.09;6101285;23;20025;-70
2023/11/23 00:22:19;;;;;;;7.35;6.85;;;;;;;5.56;100.00;101810.31;6121314;23;20308;-71
2023/11/23 00:24:45;;;;;;;5.45;5.05;;;;;;;5.54;100.00;101819.91;6095709;23;20021;-70
2023/11/23 00:27:14;;;;;;;4.55;4.25;;;;;;;5.68;100.00;101848.38;6128061;23;20033;-70
2023/11/23 00:29:41;;;;;;;5.10;4.75;;;;;;;5.29;100.00;101799.41;6096581;23;20214;-70
2023/11/23 00:32:12;;;;;;;5.43;5.13;;;;;;;5.50;100.00;101844.25;6128782;23;20134;-69
2023/11/23 00:34:39;;;;;;;8.13;4.68;;;;;;;5.50;100.00;101839.03;6070869;23;20284;-70
2023/11/23 00:37:07;;;;;;;5.13;4.82;;;;;;;5.75;100.00;101860.41;6122161;23;20045;-70
2023/11/23 00:39:34;;;;;;;5.25;4.45;;;;;;;5.77;100.00;101854.31;6100800;23;20373;-70
2023/11/23 00:42:00;;;;;;;5.15;4.63;;;;;;;5.76;100.00;101847.38;6097517;23;20030;-70
2023/11/23 00:44:27;;;;;;;7.80;7.20;;;;;;;4.56;100.00;101639.88;6093556;23;20010;-70
2023/11/23 00:46:53;;;;;;;7.95;5.10;;;;;;;5.86;100.00;101845.50;6126048;23;20103;-69
2023/11/23 00:49:20;;;;;;;6.45;5.88;;;;;;;5.95;100.00;101840.19;6101549;23;20032;-69
2023/11/23 00:51:46;;;;;;;4.70;4.43;;;;;;;5.91;100.00;101833.28;6099457;23;20029;-69
2023/11/23 00:54:12;;;;;;;6.03;5.53;;;;;;;5.92;100.00;101818.50;6105024;23;20026;-70
2023/11/23 00:56:39;;;;;;;5.55;5.05;;;;;;;5.97;100.00;101820.19;6100761;23;20037;-70
2023/11/23 00:59:05;;;;;;;5.70;5.22;;;;;;;5.96;100.00;101823.66;6108457;23;20077;-70
2023/11/23 01:01:32;;;;;;;5.53;5.13;;;;;;;5.62;100.00;101755.56;6054373;23;20029;-69
2023/11/23 01:03:58;;;;;;;5.88;5.07;;;;;;;5.53;100.00;101745.25;6091585;23;20014;-69
2023/11/23 01:06:25;;;;;;;6.68;6.20;;;;;;;6.03;100.00;101824.44;6045361;23;20041;-68
2023/11/23 01:08:51;;;;;;;9.40;5.30;;;;;;;6.02;100.00;101817.50;6049845;23;20021;-68
2023/11/23 01:11:18;;;;;;;5.63;5.20;;;;;;;6.02;100.00;101817.50;6071474;23;20014;-69
2023/11/23 01:13:44;;;;;;;6.18;5.63;;;;;;;6.06;100.00;101834.81;6051306;23;20473;-71
2023/11/23 01:16:11;;;;;;;4.70;4.30;;;;;;;6.10;100.00;101833.03;6061971;23;20285;-68
2023/11/23 01:18:37;;;;;;;5.07;4.78;;;;;;;6.12;100.00;101844.31;6046571;23;20078;-68
2023/11/23 01:21:04;;;;;;;8.82;5.68;;;;;;;6.15;100.00;101841.63;6032843;23;20031;-68
2023/11/23 01:23:31;;;;;;;4.85;4.53;;;;;;;6.19;100.00;101843.31;6061365;23;20022;-68
2023/11/23 01:25:57;;;;;;;5.95;5.50;;;;;;;6.16;100.00;101844.22;6111438;23;20029;-70
2023/11/23 01:28:24;;;;;;;7.97;6.75;;;;;;;6.19;100.00;101853.72;6066448;23;20022;-70
2023/11/23 01:30:50;;;;;;;5.45;4.97;;;;;;;5.64;100.00;101756.38;6106567;23;20088;-70
2023/11/23 01:33:17;;;;;;;6.03;5.43;;;;;;;6.22;100.00;101852.84;6075786;23;20028;-70
2023/11/23 01:35:44;;;;;;;6.68;6.03;;;;;;;6.18;100.00;101852.03;6076434;23;20033;-67
2023/11/23 01:38:10;;;;;;;5.90;5.45;;;;;;;5.49;100.00;101746.19;6077749;23;20043;-68
2023/11/23 01:40:37;;;;;;;6.40;5.82;;;;;;;6.17;100.00;101868.53;6070140;23;20327;-70
2023/11/23 01:43:09;;;;;;;5.53;5.22;;;;;;;6.01;100.00;101841.84;6083655;23;20088;-70
2023/11/23 01:45:36;;;;;;;5.93;5.53;;;;;;;6.21;100.00;101870.19;6080215;23;20018;-70
2023/11/23 01:48:03;;;;;;;4.82;4.43;;;;;;;5.62;100.00;101772.94;6102197;23;20017;-68
2023/11/23 01:50:31;;;;;;;6.25;5.85;;;;;;;6.26;100.00;101872.75;6078501;23;20492;-68
2023/11/23 01:52:58;;;;;;;5.20;4.82;;;;;;;5.73;100.00;101771.00;6081245;23;20018;-68
2023/11/23 01:55:25;;;;;;;6.18;5.70;;;;;;;6.28;100.00;101877.06;6082276;23;20562;-68
2023/11/23 01:57:54;;;;;;;7.28;5.15;;;;;;;6.33;100.00;101874.38;6079989;23;20138;-68
2023/11/23 02:00:24;;;;;;;7.15;6.65;;;;;;;6.23;100.00;101868.44;6087588;23;20025;-69
2023/11/23 02:02:51;;;;;;;6.20;5.65;;;;;;;6.17;100.00;101864.19;6080082;23;20053;-69
2023/11/23 02:05:20;;;;;;;6.38;5.88;;;;;;;6.24;100.00;101872.78;6104385;23;20052;-68
2023/11/23 02:07:46;;;;;;;5.70;5.25;;;;;;;5.93;100.00;101836.72;6078082;23;20021;-68
2023/11/23 02:10:14;;;;;;;6.55;6.00;;;;;;;6.15;100.00;101881.59;6083712;23;20480;-69
2023/11/23 02:12:43;;;;;;;4.85;4.53;;;;;;;6.25;100.00;101892.72;6073482;23;20033;-68
2023/11/23 02:15:10;;;;;;;6.10;5.50;;;;;;;6.28;100.00;101905.75;6079560;23;20025;-71
2023/11/23 02:17:36;;;;;;;5.25;4.85;;;;;;;6.29;100.00;101877.91;6075943;23;20519;-70
2023/11/23 02:20:08;;;;;;;6.35;5.60;;;;;;;6.34;100.00;101886.53;6055240;23;20038;-68
2023/11/23 02:22:36;;;;;;;5.72;5.43;;;;;;;6.33;100.00;101885.66;6072051;23;20351;-70
2023/11/23 02:25:06;;;;;;;5.78;5.28;;;;;;;6.34;100.00;101883.94;6107985;23;20065;-71
2023/11/23 02:27:36;;;;;;;5.38;5.03;;;;;;;6.28;100.00;101879.66;6078459;23;20032;-70
2023/11/23 02:30:05;;;;;;;6.53;5.88;;;;;;;6.22;100.00;101871.94;6095841;23;20028;-70
2023/11/23 02:32:32;;;;;;;7.60;7.10;;;;;;;6.41;100.00;101897.72;6078770;23;20041;-71
2023/11/23 02:34:58;;;;;;;6.50;5.85;;;;;;;6.00;100.00;101819.28;6106995;23;20108;-71
2023/11/23 02:37:25;;;;;;;6.32;5.18;;;;;;;5.97;100.00;101815.00;6080069;23;20037;-68
2023/11/23 02:39:51;;;;;;;5.50;5.10;;;;;;;6.38;100.00;101883.84;6106491;23;20317;-70
2023/11/23 02:42:18;;;;;;;5.70;5.28;;;;;;;6.44;100.00;101893.31;6073372;23;20109;-71
2023/11/23 02:44:44;;;;;;;5.72;5.28;;;;;;;6.42;100.00;101889.88;6100158;23;20026;-70
2023/11/23 02:47:11;;;;;;;5.28;4.93;;;;;;;6.46;100.00;101888.94;6073855;23;20278;-70
2023/11/23 02:49:37;;;;;;;6.07;5.30;;;;;;;6.43;100.00;101891.59;6089473;23;20026;-70
2023/11/23 02:52:04;;;;;;;8.43;6.05;;;;;;;6.47;100.00;101885.44;6078868;23;20039;-69
2023/11/23 02:54:31;;;;;;;8.52;6.97;;;;;;;6.48;100.00;101889.78;6103034;23;20071;-71
2023/11/23 02:56:57;;;;;;;5.38;4.97;;;;;;;6.52;100.00;101886.25;6075023;23;20048;-68
2023/11/23 02:59:23;;;;;;;5.72;5.18;;;;;;;6.55;100.00;101890.53;6077046;23;20029;-70
2023/11/23 03:01:50;;;;;;;6.13;5.63;;;;;;;6.15;100.00;101818.16;6073908;23;20033;-71
2023/11/23 03:04:16;;;;;;;6.95;6.45;;;;;;;6.45;100.00;101874.19;6083980;23;20028;-70
2023/11/23 03:06:43;;;;;;;5.97;5.57;;;;;;;6.51;100.00;101892.31;6052484;23;20078;-71
2023/11/23 03:09:09;;;;;;;8.88;4.88;;;;;;;6.55;100.00;101888.78;6085823;23;20021;-70
2023/11/23 03:11:36;;;;;;;6.47;6.07;;;;;;;6.62;100.00;101881.75;6074523;23;20551;-70
2023/11/23 03:14:03;;;;;;;5.05;4.75;;;;;;;6.30;100.00;101825.75;6104951;23;20479;-69
2023/11/23 03:16:30;;;;;;;6.72;6.28;;;;;;;6.73;100.00;101874.56;6074044;23;20237;-70
2023/11/23 03:18:56;;;;;;;6.25;5.65;;;;;;;6.74;100.00;101870.25;6108739;23;20005;-68
2023/11/23 03:21:23;;;;;;;4.95;4.55;;;;;;;6.83;100.00;101877.88;6078024;23;20049;-70
2023/11/23 03:23:50;;;;;;;6.60;5.30;;;;;;;6.86;100.00;101871.78;6102232;23;20251;-69
2023/11/23 03:26:16;;;;;;;6.95;6.50;;;;;;;6.86;100.00;101861.34;6075948;23;20454;-69
2023/11/23 03:28:43;;;;;;;5.85;5.35;;;;;;;6.55;100.00;101809.69;6071343;23;20642;-70
2023/11/23 03:31:09;;;;;;;5.32;4.90;;;;;;;6.85;100.00;101851.78;6078640;23;20448;-69
2023/11/23 03:33:36;;;;;;;5.60;5.20;;;;;;;6.69;100.00;101825.09;6104519;23;20096;-69
2023/11/23 03:36:03;;;;;;;6.55;5.70;;;;;;;6.53;100.00;101801.88;6073816;23;20038;-70
2023/11/23 03:38:29;;;;;;;7.65;7.10;;;;;;;6.67;100.00;101832.94;6103437;23;20013;-70
2023/11/23 03:40:57;;;;;;;5.43;4.93;;;;;;;6.52;100.00;101784.53;6073128;23;20050;-69
2023/11/23 03:43:24;;;;;;;7.35;6.65;;;;;;;6.85;100.00;101846.56;6082147;23;20115;-69
2023/11/23 03:45:50;;;;;;;6.40;5.90;;;;;;;6.91;100.00;101843.84;6079604;23;20064;-68
2023/11/23 03:48:18;;;;;;;12.52;8.70;;;;;;;6.99;100.00;101841.94;6079228;23;20049;-68
2023/11/23 03:50:45;;;;;;;6.60;6.00;;;;;;;6.90;100.00;101861.25;6049099;23;20496;-69
2023/11/23 03:53:11;;;;;;;5.47;5.07;;;;;;;6.97;100.00;101839.34;6056180;23;20107;-68
2023/11/23 03:55:38;;;;;;;6.10;5.55;;;;;;;6.60;100.00;101760.94;6050494;23;20087;-68
2023/11/23 03:58:04;;;;;;;6.38;5.88;;;;;;;7.09;100.00;101840.88;6054819;23;20456;-68
2023/11/23 04:00:31;;;;;;;8.38;7.65;;;;;;;7.14;100.00;101846.03;6042536;23;20070;-70
2023/11/23 04:02:58;;;;;;;7.60;6.15;;;;;;;7.09;100.00;101829.56;6078613;23;20250;-70
2023/11/23 04:05:25;;;;;;;7.63;6.47;;;;;;;7.11;100.00;101827.78;6041174;23;20619;-69
2023/11/23 04:07:52;;;;;;;6.90;6.20;;;;;;;7.04;100.00;101807.94;6079654;23;20030;-69
2023/11/23 04:10:18;;;;;;;9.15;7.75;;;;;;;7.22;100.00;101820.63;6047647;23;20337;-68
2023/11/23 04:12:45;;;;;;;8.20;6.72;;;;;;;7.18;100.00;101818.97;6069783;23;20157;-68
2023/11/23 04:15:14;;;;;;;7.50;6.60;;;;;;;7.15;100.00;101812.03;6048089;23;20280;-69
2023/11/23 04:17:41;;;;;;;7.47;6.07;;;;;;;7.13;100.00;101815.56;6040444;23;20092;-71
2023/11/23 04:20:09;;;;;;;6.82;5.90;;;;;;;7.14;100.00;101814.69;6076355;23;20013;-68
2023/11/23 04:22:36;;;;;;;6.40;5.45;;;;;;;7.04;100.00;101794.88;6040437;23;20021;-68
2023/11/23 04:25:03;;;;;;;6.43;6.03;;;;;;;6.76;100.00;101738.88;6075241;23;20104;-69
2023/11/23 04:27:30;;;;;;;9.07;5.85;;;;;;;7.26;100.00;101821.44;6046582;23;20015;-69
2023/11/23 04:29:56;;;;;;;6.93;6.05;;;;;;;7.26;100.00;101818.81;6037759;23;20537;-69
2023/11/23 04:32:23;;;;;;;7.78;7.18;;;;;;;7.30;100.00;101823.09;6069034;23;20161;-68
2023/11/23 04:34:49;;;;;;;8.88;7.20;;;;;;;7.34;100.00;101827.34;6047965;23;20468;-69
2023/11/23 04:37:17;;;;;;;9.88;7.35;;;;;;;7.24;100.00;101808.38;6081859;23;20358;-69
2023/11/23 04:39:43;;;;;;;8.32;7.53;;;;;;;7.21;100.00;101789.31;6052192;23;20022;-69
2023/11/23 04:42:10;;;;;;;9.50;7.38;;;;;;;7.45;100.00;101819.28;6050414;23;20034;-71
2023/11/23 04:44:36;;;;;;;6.95;6.40;;;;;;;7.48;100.00;101821.84;6082702;23;20421;-69
2023/11/23 04:47:03;;;;;;;8.77;7.93;;;;;;;7.53;100.00;101814.75;6064972;23;20025;-69
2023/11/23 04:49:29;;;;;;;9.40;7.05;;;;;;;7.26;100.00;101779.66;6108213;23;20019;-70
2023/11/23 04:51:56;;;;;;;6.78;6.10;;;;;;;7.54;100.00;101796.44;6057995;23;20026;-69
2023/11/23 04:54:22;;;;;;;8.63;7.78;;;;;;;7.48;100.00;101799.19;6104867;23;20052;-70
2023/11/23 04:56:50;;;;;;;6.22;5.68;;;;;;;6.65;100.00;101659.94;6107245;23;20049;-70
2023/11/23 04:59:17;;;;;;;7.55;6.53;;;;;;;7.19;100.00;101748.41;6076831;23;20037;-71
2023/11/23 05:01:44;;;;;;;5.88;5.47;;;;;;;7.50;100.00;101812.22;6087620;23;20645;-70
2023/11/23 05:04:10;;;;;;;6.85;6.25;;;;;;;7.26;100.00;101758.75;6080623;23;20314;-70
2023/11/23 05:06:37;;;;;;;8.20;6.85;;;;;;;7.46;100.00;101797.50;6097738;23;20012;-70
2023/11/23 05:09:04;;;;;;;7.20;6.50;;;;;;;7.15;100.00;101751.13;6079776;23;20109;-68
2023/11/23 05:11:30;;;;;;;7.03;6.50;;;;;;;7.51;100.00;101814.78;6107034;23;20533;-70
2023/11/23 05:14:05;;;;;;;11.88;7.25;;;;;;;7.56;100.00;101809.47;6081445;23;20045;-68
2023/11/23 05:16:31;;;;;;;11.38;8.50;;;;;;;7.30;100.00;101769.09;6102730;23;20025;-70
2023/11/23 05:18:58;;;;;;;7.25;6.53;;;;;;;7.62;100.00;101801.50;6081399;23;20115;-69
2023/11/23 05:21:24;;;;;;;7.93;6.93;;;;;;;7.64;100.00;101811.88;6092948;23;20619;-70
2023/11/23 05:23:51;;;;;;;6.28;5.68;;;;;;;7.59;100.00;101802.41;6076173;23;20528;-70
2023/11/23 05:26:17;;;;;;;8.07;7.30;;;;;;;7.64;100.00;101804.06;6098822;23;20044;-70
2023/11/23 05:28:44;;;;;;;8.13;6.10;;;;;;;7.31;100.00;101752.53;6074127;23;20165;-69
2023/11/23 05:31:13;;;;;;;7.10;6.38;;;;;;;7.66;100.00;101805.75;6105455;23;20021;-69
2023/11/23 05:33:40;;;;;;;9.95;7.00;;;;;;;7.64;100.00;101799.72;6102288;23;20034;-70
2023/11/23 05:36:11;;;;;;;8.02;7.13;;;;;;;7.53;100.00;101783.41;6106025;23;20029;-68
2023/11/23 05:38:38;;;;;;;7.60;5.75;;;;;;;7.50;100.00;101779.13;6073820;23;20022;-68
2023/11/23 05:41:04;;;;;;;8.57;6.88;;;;;;;7.69;100.00;101812.66;6099979;23;20445;-70
2023/11/23 05:43:31;;;;;;;7.40;6.15;;;;;;;7.43;100.00;101771.44;6095856;23;20046;-70
2023/11/23 05:45:57;;;;;;;7.18;6.57;;;;;;;7.79;100.00;101824.63;6085104;23;20085;-70
2023/11/23 05:48:24;;;;;;;8.73;7.95;;;;;;;7.73;100.00;101816.91;6073953;23;20034;-70
2023/11/23 05:50:50;;;;;;;7.65;7.05;;;;;;;7.86;100.00;101825.34;6084237;23;20527;-70
2023/11/23 05:53:17;;;;;;;9.18;8.30;;;;;;;7.77;100.00;101821.19;6075143;23;20025;-70
2023/11/23 05:55:43;;;;;;;7.60;6.82;;;;;;;7.86;100.00;101828.84;6108488;23;20019;-70
2023/11/23 05:58:09;;;;;;;7.30;6.60;;;;;;;7.88;100.00;101829.66;6078576;23;20018;-70
2023/11/23 06:00:36;;;;;;;7.82;7.07;;;;;;;6.89;100.00;101652.50;6073472;23;20014;-69
2023/11/23 06:03:02;;;;;;;8.05;7.25;;;;;;;7.85;100.00;101793.13;6107635;23;20073;-69
2023/11/23 06:05:29;;;;;;;11.63;7.57;;;;;;;7.64;100.00;101750.06;6069395;23;20010;-70
2023/11/23 06:07:55;;;;;;;10.95;6.85;;;;;;;7.99;100.00;101808.47;6074998;23;20017;-69
2023/11/23 06:10:22;;;;;;;9.00;8.27;;;;;;;7.78;100.00;101773.28;6052599;23;20034;-72
2023/11/23 06:12:50;;;;;;;7.95;6.95;;;;;;;7.48;100.00;101733.88;6087909;23;20099;-69
2023/11/23 06:15:17;;;;;;;13.32;8.38;;;;;;;8.03;100.00;101798.81;6059537;23;20378;-69
2023/11/23 06:17:44;;;;;;;8.45;7.05;;;;;;;7.92;100.00;101791.25;6100677;23;20100;-69
2023/11/23 06:20:12;;;;;;;10.43;8.63;;;;;;;7.92;100.00;101791.25;6079946;23;20026;-69
2023/11/23 06:22:41;;;;;;;10.77;7.53;;;;;;;7.89;100.00;101771.25;6100246;23;20144;-69
2023/11/23 06:25:07;;;;;;;10.68;7.07;;;;;;;8.01;100.00;101800.63;6080001;23;20033;-69
2023/11/23 06:27:34;;;;;;;7.85;7.07;;;;;;;7.95;100.00;101786.78;6079072;23;20033;-70
2023/11/23 06:30:00;;;;;;;8.85;7.95;;;;;;;8.01;100.00;101790.16;6105690;23;20088;-69
2023/11/23 06:32:27;;;;;;;9.52;8.60;;;;;;;8.08;100.00;101802.16;6050933;23;20069;-70
2023/11/23 06:34:57;;;;;;;7.68;7.03;;;;;;;8.06;100.00;101794.38;6050600;23;20022;-69
2023/11/23 06:37:23;;;;;;;9.85;7.30;;;;;;;8.10;100.00;101784.72;6085552;23;20033;-69
2023/11/23 06:39:52;;;;;;;12.45;7.60;;;;;;;7.57;100.00;101701.47;6078893;23;20091;-69
2023/11/23 06:42:21;;;;;;;9.38;7.82;;;;;;;8.14;100.00;101794.22;6070845;23;20572;-69
2023/11/23 06:44:49;;;;;;;8.05;7.00;;;;;;;8.13;100.00;101795.09;6106590;23;20373;-69
2023/11/23 06:47:17;;;;;;;6.68;6.10;;;;;;;7.07;100.00;101615.56;6075815;23;20103;-69
2023/11/23 06:49:43;;;;;;;8.07;7.20;;;;;;;8.37;100.00;101809.31;6105734;23;20028;-69
2023/11/23 06:52:09;;;;;;;9.85;7.75;;;;;;;7.29;100.00;101638.56;6079858;23;20055;-69
2023/11/23 06:54:36;;;;;;;6.13;5.68;;;;;;;8.28;100.00;101786.88;6082722;23;20010;-69
2023/11/23 06:57:03;;;;;;;10.18;7.18;;;;;;;8.24;100.00;101784.34;6078433;23;20113;-69
2023/11/23 06:59:33;;;;;;;5.55;5.15;;;;;;;8.26;100.00;101788.66;6078056;23;20025;-69
2023/11/23 07:01:59;;;;;;;7.82;7.18;;;;;;;8.24;100.00;101777.38;6078311;23;20108;-69
2023/11/23 07:04:26;;;;;;;11.40;10.27;;;;;;;8.24;100.00;101769.53;6094003;23;20042;-68
2023/11/23 07:06:53;;;;;;;8.85;8.07;;;;;;;8.23;100.00;101770.41;6079449;23;20241;-70
2023/11/23 07:09:20;;;;;;;8.38;7.53;;;;;;;7.94;100.00;101724.09;6104686;23;20087;-70
2023/11/23 07:11:49;;;;;;;8.75;7.85;;;;;;;7.99;100.00;101730.91;6074648;23;20059;-70
2023/11/23 07:14:15;;;;;;;16.80;6.93;;;;;;;8.38;100.00;101779.66;6103523;23;20358;-69
2023/11/23 07:16:42;;;;;;;9.23;7.30;;;;;;;7.94;100.00;101695.34;6074707;23;20029;-70
2023/11/23 07:19:08;;;;;;;8.40;7.60;;;;;;;8.16;100.00;101729.66;6106519;23;20026;-70
2023/11/23 07:21:35;;;;;;;6.63;5.95;;;;;;;8.13;100.00;101725.34;6075227;23;20045;-70
2023/11/23 07:24:01;;;;;;;8.45;7.68;;;;;;;8.37;100.00;101755.22;6100123;23;20014;-70
2023/11/23 07:26:30;;;;;;;11.30;8.05;;;;;;;8.37;100.00;101778.78;6077546;23;20101;-70
2023/11/23 07:28:57;;;;;;;10.95;8.10;;;;;;;8.39;100.00;101749.97;6100138;23;20032;-70
2023/11/23 07:31:23;;;;;;;15.18;8.18;;;;;;;8.36;100.00;101747.44;6077337;23;20232;-70
2023/11/23 07:33:50;;;;;;;8.68;7.72;;;;;;;8.37;100.00;101750.00;6102564;23;20224;-70
2023/11/23 07:36:16;;;;;;;8.13;7.47;;;;;;;8.45;100.00;101749.00;6071342;23;20323;-70
2023/11/23 07:38:44;;;;;;;8.32;7.53;;;;;;;8.11;100.00;101695.75;6104837;23;20045;-70
2023/11/23 07:41:11;;;;;;;7.75;7.05;;;;;;;8.44;100.00;101752.50;6045464;23;20022;-70
2023/11/23 07:43:38;;;;;;;7.53;6.95;;;;;;;8.42;100.00;101755.16;6079343;23;20017;-70
2023/11/23 07:46:05;;;;;;;7.80;6.63;;;;;;;8.53;100.00;101762.72;6077778;23;20044;-70
2023/11/23 07:48:31;;;;;;;10.35;9.40;;;;;;;8.29;100.00;101717.09;6100322;23;20196;-70
2023/11/23 07:50:59;;;;;;;7.82;7.13;;;;;;;8.63;100.00;101750.25;6078295;23;20110;-70
2023/11/23 07:53:30;;;;;;;8.02;7.20;;;;;;;8.45;100.00;101747.22;6069439;23;20060;-70
2023/11/23 07:55:57;;;;;;;15.70;9.10;;;;;;;8.62;100.00;101744.16;6100108;23;20123;-70
2023/11/23 07:58:24;;;;;;;9.85;8.93;;;;;;;7.71;100.00;101600.09;6073947;23;20029;-70
2023/11/23 08:00:51;;;;;;;7.15;6.50;;;;;;;8.13;100.00;101651.28;6102756;23;20037;-70
2023/11/23 08:03:18;;;;;;;11.55;7.95;;;;;;;8.68;100.00;101738.78;6076044;23;20049;-70
2023/11/23 08:05:45;;;;;;;10.13;7.40;;;;;;;8.61;100.00;101724.13;6069972;23;20108;-70
2023/11/23 08:08:12;;;;;;;12.18;7.80;;;;;;;8.71;100.00;101730.81;6078497;23;20038;-70
2023/11/23 08:10:39;;;;;;;9.85;8.07;;;;;;;8.16;100.00;101638.13;6090012;23;20084;-70
2023/11/23 08:13:05;;;;;;;7.75;6.70;;;;;;;8.76;100.00;101728.09;6074143;23;20118;-70
2023/11/23 08:15:32;;;;;;;8.13;7.20;;;;;;;8.50;100.00;101679.06;6106613;23;20499;-71
2023/11/23 08:18:01;;;;;;;8.63;7.53;;;;;;;8.85;100.00;101716.50;6079094;23;20531;-71
2023/11/23 08:20:33;;;;;;;11.75;8.82;;;;;;;8.89;100.00;101718.13;6111009;23;20108;-70
2023/11/23 08:23:00;;;;;;;8.45;7.60;;;;;;;8.91;100.00;101704.06;6076332;23;20010;-69
2023/11/23 08:25:27;;;;;;;7.15;6.65;;;;;;;8.97;100.00;101706.50;6082781;23;20426;-69
2023/11/23 08:27:53;;;;;;;8.82;6.93;;;;;;;9.03;100.00;101705.47;6108780;23;20045;-69
2023/11/23 08:30:23;;;;;;;9.93;9.13;;;;;;;9.10;100.00;101700.91;6075045;23;20154;-68
2023/11/23 08:32:49;;;;;;;9.55;7.35;;;;;;;9.13;100.00;101688.59;6108524;23;20029;-69
2023/11/23 08:35:16;;;;;;;7.32;6.70;;;;;;;9.17;100.00;101684.97;6076340;23;20030;-69
2023/11/23 08:37:42;;;;;;;8.20;7.50;;;;;;;8.96;100.00;101648.94;6107172;23;20265;-69
2023/11/23 08:40:09;;;;;;;8.05;7.40;;;;;;;9.03;100.00;101641.78;6083019;23;20537;-69
2023/11/23 08:42:36;;;;;;;7.93;7.35;;;;;;;9.25;100.00;101673.41;6095451;23;20041;-69
2023/11/23 08:45:02;;;;;;;9.57;8.43;;;;;;;9.15;100.00;101629.16;6082905;23;20042;-69
2023/11/23 08:47:29;;;;;;;9.50;6.97;;;;;;;9.25;100.00;101639.34;6097130;23;20354;-68
2023/11/23 08:49:55;;;;;;;12.13;7.93;;;;;;;8.62;100.00;101529.59;6055849;23;20033;-68
2023/11/23 08:52:22;;;;;;;8.93;8.05;;;;;;;9.38;100.00;101646.78;6074882;23;20133;-68
2023/11/23 08:54:48;;;;;;;6.10;5.60;;;;;;;9.34;100.00;101636.44;6104894;23;20029;-70
2023/11/23 08:57:15;;;;;;;8.57;6.60;;;;;;;9.38;100.00;101638.03;6077596;23;20420;-68
2023/11/23 08:59:41;;;;;;;14.05;7.82;;;;;;;9.44;100.00;101637.00;6103804;23;20081;-68
2023/11/23 09:02:09;;;;;;;7.75;7.05;;;;;;;9.54;100.00;101628.81;6080708;23;20026;-68
2023/11/23 09:04:46;;;;;;;8.55;7.80;;;;;;;9.18;100.00;101532.19;6093974;23;20021;-68
2023/11/23 09:07:13;;;;;;;8.52;7.80;;;;;;;9.77;100.00;101606.19;6078487;23;20458;-71
2023/11/23 09:09:39;;;;;;;8.98;8.18;;;;;;;9.79;100.00;101600.00;6088882;23;20034;-68
2023/11/23 09:12:06;;;;;;;6.82;6.32;;;;;;;9.84;100.00;101585.88;6063397;23;20397;-68
2023/11/23 09:14:33;;;;;;;12.35;9.65;;;;;;;9.75;100.00;101569.53;6090182;23;20405;-70
2023/11/23 09:17:14;;;;;;;7.95;7.07;;;;;;;9.79;100.00;101586.88;6077235;23;20046;-69
2023/11/23 09:19:40;;;;;;;8.60;7.78;;;;;;;9.78;100.00;101568.56;6061579;23;20079;-69
2023/11/23 09:22:10;;;;;;;7.57;6.82;;;;;;;9.59;100.00;101535.16;6079299;23;20097;-69
2023/11/23 09:24:37;;;;;;;9.40;6.82;;;;;;;9.69;100.00;101563.66;6071048;23;20009;-71
2023/11/23 09:27:06;;;;;;;8.05;7.35;;;;;;;9.79;100.00;101570.31;6058872;23;20030;-68
2023/11/23 09:29:32;;;;;;;6.88;6.28;;;;;;;9.69;100.00;101554.03;6074514;23;20030;-69
2023/11/23 09:31:59;;;;;;;6.50;6.00;;;;;;;9.71;100.00;101565.31;6067183;23;20050;-69
2023/11/23 09:34:25;;;;;;;8.57;7.88;;;;;;;9.79;100.00;101568.53;6071512;23;20037;-68
2023/11/23 09:36:52;;;;;;;7.80;7.10;;;;;;;9.80;100.00;101558.88;6051978;23;20030;-68
2023/11/23 09:39:18;;;;;;;7.53;6.85;;;;;;;9.53;100.00;101506.53;6074383;23;20048;-69
2023/11/23 09:41:49;;;;;;;8.75;7.95;;;;;;;9.45;100.00;101484.13;6070105;23;20042;-69
2023/11/23 09:44:16;;;;;;;7.25;6.60;;;;;;;9.78;100.00;101534.50;6074712;23;20021;-69
2023/11/23 09:46:45;;;;;;;8.00;7.20;;;;;;;9.82;100.00;101538.72;6045890;23;20034;-68
2023/11/23 09:49:12;;;;;;;6.50;6.00;;;;;;;9.77;100.00;101530.19;6077080;23;20499;-69
2023/11/23 09:51:44;;;;;;;7.85;7.05;;;;;;;8.44;100.00;101313.03;6047925;23;20030;-69
2023/11/23 09:54:15;;;;;;;8.23;7.37;;;;;;;9.50;100.00;101490.94;6072983;23;20638;-69
2023/11/23 09:56:42;;;;;;;8.23;7.55;;;;;;;9.87;100.00;101541.19;6064353;23;20042;-69
2023/11/23 09:59:08;;;;;;;11.35;8.40;;;;;;;9.22;100.00;101435.16;6071389;23;20020;-70
2023/11/23 10:01:43;;;;;;;9.52;8.52;;;;;;;9.86;100.00;101516.75;6074786;23;20015;-69
2023/11/23 10:04:11;;;;;;;8.55;7.75;;;;;;;9.65;100.00;101483.44;6095352;23;20026;-69
2023/11/23 10:06:37;;;;;;;9.18;7.78;;;;;;;9.95;100.00;101515.56;6059718;23;20026;-69
2023/11/23 10:09:06;;;;;;;17.48;7.97;;;;;;;10.01;100.00;101517.09;6078199;23;20154;-69
2023/11/23 10:11:33;;;;;;;9.00;7.55;;;;;;;10.02;100.00;101506.53;6063008;23;20077;-71
2023/11/23 10:13:59;;;;;;;7.20;6.32;;;;;;;9.40;100.00;101389.97;6078754;23;20133;-69
2023/11/23 10:16:26;;;;;;;8.98;8.07;;;;;;;9.92;100.00;101456.22;6076214;23;20198;-69
2023/11/23 10:18:53;;;;;;;7.32;6.80;;;;;;;9.85;100.00;101446.88;6080382;23;20079;-71
2023/11/23 10:21:19;;;;;;;7.38;6.75;;;;;;;9.90;100.00;101455.44;6076344;23;20079;-68
2023/11/23 10:23:47;;;;;;;6.93;6.35;;;;;;;9.93;100.00;101489.38;5911754;23;20456;-70
2023/11/23 10:26:13;;;;;;;6.07;5.68;;;;;;;9.72;100.00;101443.84;6051800;23;20034;-70
2023/11/23 10:28:41;;;;;;;11.25;6.72;;;;;;;9.96;100.00;101464.81;6070894;23;20508;-70
2023/11/23 10:31:08;;;;;;;7.00;6.35;;;;;;;9.77;100.00;101435.81;6053658;23;20081;-70
2023/11/23 10:33:41;;;;;;;7.47;6.47;;;;;;;10.01;100.00;101465.50;6042468;23;20429;-70
2023/11/23 10:36:08;;;;;;;6.90;6.30;;;;;;;9.50;100.00;101375.66;6034194;23;20030;-70
2023/11/23 10:38:40;;;;;;;8.18;7.38;;;;;;;9.30;100.00;101344.94;6079342;23;20953;-69
2023/11/23 10:41:11;;;;;;;13.98;6.95;;;;;;;10.11;100.00;101453.75;6047125;23;20048;-68
2023/11/23 10:43:38;;;;;;;7.38;6.35;;;;;;;10.11;100.00;101440.63;6074796;23;20024;-69
2023/11/23 10:46:11;;;;;;;6.93;6.40;;;;;;;9.82;100.00;101399.78;6048156;23;20070;-69
2023/11/23 10:48:38;;;;;;;7.57;6.95;;;;;;;10.08;100.00;101429.41;6055075;23;20084;-69
2023/11/23 10:51:06;;;;;;;7.85;6.75;;;;;;;10.01;100.00;101443.69;6075804;23;20027;-68
2023/11/23 10:53:33;;;;;;;10.88;7.65;;;;;;;9.96;100.00;101423.72;6049331;23;20034;-70
2023/11/23 10:56:06;;;;;;;6.70;6.13;;;;;;;9.70;100.00;101385.41;6059936;23;20092;-68
2023/11/23 10:58:37;;;;;;;7.65;7.05;;;;;;;10.13;100.00;101437.97;6071696;23;20096;-71
2023/11/23 11:01:11;;;;;;;5.88;5.32;;;;;;;10.09;100.00;101412.78;6052119;23;20018;-69
2023/11/23 11:03:38;;;;;;;6.45;5.93;;;;;;;9.53;100.00;101317.03;6077645;23;20029;-67
2023/11/23 11:06:10;;;;;;;5.93;5.43;;;;;;;10.04;100.00;101394.56;6049817;23;20465;-69
2023/11/23 11:08:38;;;;;;;6.07;5.47;;;;;;;10.16;100.00;101407.22;6076420;23;20029;-69
2023/11/23 11:11:10;;;;;;;5.93;5.53;;;;;;;10.25;100.00;101392.88;6051898;23;20022;-68
2023/11/23 11:13:44;;;;;;;17.70;6.97;;;;;;;10.01;100.00;101325.69;6074766;23;20037;-69
2023/11/23 11:16:15;;;;;;;6.35;5.95;;;;;;;10.13;100.00;101357.50;6061149;23;20679;-71
2023/11/23 11:18:51;;;;;;;6.90;5.57;;;;;;;10.23;100.00;101381.59;6070431;23;20049;-69
2023/11/23 11:21:21;;;;;;;6.60;6.00;;;;;;;10.17;100.00;101355.63;6056635;23;20022;-68
2023/11/23 11:23:52;;;;;;;6.15;5.68;;;;;;;10.29;100.00;101362.16;6048618;23;20260;-70